Terminal Aerodrome Forecast
Issued by NWS

Home | Current Version | Previous Version | Text Only | Print | Product List | Glossary On
Versions: 1 2 3 4 5 6 7 8 9 10 11 12 13 14
000
FTUS46 KOTX 261737
TAFSFF
TAF
KSFF 261737Z 2618/2718 17009KT P6SM SCT024 SCT080 BKN130
     FM262000 19011KT P6SM SCT050 BKN120
     FM270200 21008KT P6SM FEW060 SCT090 BKN150
     FM270600 22007KT P6SM BKN100 OVC150
     FM271400 20010G16KT P6SM VCSH BKN100 BKN200=

USA.gov is the U.S. government's official web portal to all federal, state and local government web resources and services.